Bomar Pluto — 9HRH9 — position and weather

sailwx.info

Track history (hours):
 
Tides and Currents Weather Stations Pressure Air Temp Water Temp Dewpoint Dewpoint Depression Visibility Wind Speed Wind Dir Waves Ship Positions

Bomar Pluto

Last reported at 2017-Sep-25 19:00 UTC. Time now 2017-Sep-25 19:12 UTC.
Position N 36°05' W 005°15'.

Length 108 m; draft 5 m.

Type: Ship. MMSI: 249403000.

Date/timePositionNaut miles runAvg speedWind from/ knotsBaromVisibWave heightAir tempDewpointWater temp
2017-Sep-25 19:00N 36°05' W 005°15'612.1
2017-Sep-25 18:30N 36°06' W 005°22'5 9.5
2017-Sep-25 18:00N 36°10' W 005°24'1 0.0
2017-Sep-24 22:31N 36°11' W 005°24'0 2.2
2017-Sep-24 22:27N 36°11' W 005°23'2 0.4
2017-Sep-24 17:52N 36°10' W 005°26'0 0.1
2017-Sep-24 17:28N 36°10' W 005°26'0 0.1
2017-Sep-24 16:58N 36°10' W 005°26'0 0.1
2017-Sep-24 16:28N 36°10' W 005°26'0 0.0
2017-Sep-24 15:13N 36°10' W 005°26'0 0.0
2017-Sep-24 14:52N 36°10' W 005°26'0 0.1
2017-Sep-24 14:28N 36°10' W 005°26'0 0.0
2017-Sep-24 05:22N 36°10' W 005°26'0 0.0
2017-Sep-24 04:55N 36°10' W 005°26'0 0.1
2017-Sep-24 04:28N 36°10' W 005°26'0 0.0
2017-Sep-24 03:58N 36°10' W 005°26'0 0.0
2017-Sep-24 03:28N 36°10' W 005°26'0 0.0
2017-Sep-24 02:58N 36°10' W 005°26'0 0.0
2017-Sep-24 02:25N 36°10' W 005°26'0 0.1
2017-Sep-24 01:50N 36°10' W 005°26'2 5.5
2017-Sep-24 01:23N 36°08' W 005°24'1 2.2
2017-Sep-24 01:00N 36°07' W 005°23'3 6.7
2017-Sep-24 00:30N 36°04' W 005°23'5 9.2
2017-Sep-24 00:00N 35°60' W 005°21'611.8
2017-Sep-23 23:30N 35°57' W 005°28'611.8
2017-Sep-23 22:58N 35°55' W 005°35'611.6
2017-Sep-23 22:29N 35°54' W 005°42'  
2017-Sep-17 11:06N 36°00' W 005°28'1 9.1
2017-Sep-17 11:00N 36°00' W 005°27'4 7.6
2017-Sep-17 10:30N 36°01' W 005°22'4 8.5
2017-Sep-17 10:00N 36°02' W 005°17'5 9.3
2017-Sep-17 09:27N 36°04' W 005°11'210 9.2
2017-Sep-16 10:40N 37°13' W 001°04'210.0
2017-Sep-16 10:29N 37°14' W 001°02'510.0
2017-Sep-16 10:00N 37°17' W 000°58'5 9.9
2017-Sep-16 09:30N 37°20' W 000°53'510.1
2017-Sep-16 09:00N 37°24' W 000°49'510.0
2017-Sep-16 08:30N 37°27' W 000°44'510.3
2017-Sep-16 07:59N 37°31' W 000°39'510.8
2017-Sep-16 07:30N 37°34' W 000°34'511.0
2017-Sep-16 07:00N 37°39' W 000°30'510.9
2017-Sep-16 06:30N 37°43' W 000°26'610.8
2017-Sep-16 06:00N 37°48' W 000°22'1210.6
2017-Sep-16 04:50N 37°58' W 000°14'  
Track history (hours):
 
Tides and Currents Weather Stations Pressure Air Temp Water Temp Dewpoint Dewpoint Depression Visibility Wind Speed Wind Dir Waves Ship Positions

Bomar Pluto

Last reported at 2017-Sep-25 19:00 UTC. Time now 2017-Sep-25 19:12 UTC.
Position N 36°05' W 005°15'.

Length 108 m; draft 5 m.

Type: Ship. MMSI: 249403000.

Date/timePositionNaut miles runAvg speedWind from/ knotsBaromVisibWave heightAir tempDewpointWater temp
2017-Sep-25 19:00N 36°05' W 005°15'612.1
2017-Sep-25 18:30N 36°06' W 005°22'5 9.5
2017-Sep-25 18:00N 36°10' W 005°24'1 0.0
2017-Sep-24 22:31N 36°11' W 005°24'0 2.2
2017-Sep-24 22:27N 36°11' W 005°23'2 0.4
2017-Sep-24 17:52N 36°10' W 005°26'0 0.1
2017-Sep-24 17:28N 36°10' W 005°26'0 0.1
2017-Sep-24 16:58N 36°10' W 005°26'0 0.1
2017-Sep-24 16:28N 36°10' W 005°26'0 0.0
2017-Sep-24 15:13N 36°10' W 005°26'0 0.0
2017-Sep-24 14:52N 36°10' W 005°26'0 0.1
2017-Sep-24 14:28N 36°10' W 005°26'0 0.0
2017-Sep-24 05:22N 36°10' W 005°26'0 0.0
2017-Sep-24 04:55N 36°10' W 005°26'0 0.1
2017-Sep-24 04:28N 36°10' W 005°26'0 0.0
2017-Sep-24 03:58N 36°10' W 005°26'0 0.0
2017-Sep-24 03:28N 36°10' W 005°26'0 0.0
2017-Sep-24 02:58N 36°10' W 005°26'0 0.0
2017-Sep-24 02:25N 36°10' W 005°26'0 0.1
2017-Sep-24 01:50N 36°10' W 005°26'2 5.5
2017-Sep-24 01:23N 36°08' W 005°24'1 2.2
2017-Sep-24 01:00N 36°07' W 005°23'3 6.7
2017-Sep-24 00:30N 36°04' W 005°23'5 9.2
2017-Sep-24 00:00N 35°60' W 005°21'611.8
2017-Sep-23 23:30N 35°57' W 005°28'611.8
2017-Sep-23 22:58N 35°55' W 005°35'611.6
2017-Sep-23 22:29N 35°54' W 005°42'  
2017-Sep-17 11:06N 36°00' W 005°28'1 9.1
2017-Sep-17 11:00N 36°00' W 005°27'4 7.6
2017-Sep-17 10:30N 36°01' W 005°22'4 8.5
2017-Sep-17 10:00N 36°02' W 005°17'5 9.3
2017-Sep-17 09:27N 36°04' W 005°11'210 9.2
2017-Sep-16 10:40N 37°13' W 001°04'210.0
2017-Sep-16 10:29N 37°14' W 001°02'510.0
2017-Sep-16 10:00N 37°17' W 000°58'5 9.9
2017-Sep-16 09:30N 37°20' W 000°53'510.1
2017-Sep-16 09:00N 37°24' W 000°49'510.0
2017-Sep-16 08:30N 37°27' W 000°44'510.3
2017-Sep-16 07:59N 37°31' W 000°39'510.8
2017-Sep-16 07:30N 37°34' W 000°34'511.0
2017-Sep-16 07:00N 37°39' W 000°30'510.9
2017-Sep-16 06:30N 37°43' W 000°26'610.8
2017-Sep-16 06:00N 37°48' W 000°22'1210.6
2017-Sep-16 04:50N 37°58' W 000°14'  

Dump ship's entire track history